Time;durP1;ratioP1;P1;durP2;ratioP2;P2;SDS_P1;SDS_P2;PMS_P1;PMS_P2;Temp;Humidity;BMP_temperature;BMP_pressure;BME280_temperature;BME280_humidity;BME280_pressure;Samples;Min_cycle;Max_cycle;Signal;HPM_P1;HPM_P2
2024/02/04 00:00:14;;;;;;;1.13;0.87;;;8.20;99.90;;;;;;4975312;28;20509;-72
2024/02/04 00:02:40;;;;;;;1.20;1.10;;;8.20;99.90;;;;;;4975273;28;20179;-72
2024/02/04 00:05:06;;;;;;;1.00;1.00;;;8.20;99.90;;;;;;4975259;28;20800;-72
2024/02/04 00:07:31;;;;;;;1.33;1.00;;;8.20;99.90;;;;;;4975056;28;20551;-72
2024/02/04 00:09:57;;;;;;;1.00;0.90;;;8.10;99.90;;;;;;4975155;28;20340;-72
2024/02/04 00:12:22;;;;;;;1.80;1.10;;;8.10;99.90;;;;;;4974596;28;20173;-72
2024/02/04 00:14:51;;;;;;;1.23;0.73;;;8.10;99.90;;;;;;4957695;28;20204;-72
2024/02/04 00:17:17;;;;;;;1.83;1.00;;;8.20;99.90;;;;;;4974941;28;20656;-72
2024/02/04 00:19:43;;;;;;;1.07;0.73;;;8.10;99.90;;;;;;4974877;28;20526;-73
2024/02/04 00:22:08;;;;;;;0.87;0.77;;;8.20;99.90;;;;;;4975177;28;20173;-72
2024/02/04 00:24:34;;;;;;;0.90;0.77;;;8.10;99.90;;;;;;4974912;28;20236;-72
2024/02/04 00:26:59;;;;;;;1.23;0.77;;;8.10;99.90;;;;;;4974589;28;20238;-73
2024/02/04 00:29:25;;;;;;;1.13;1.03;;;8.00;99.90;;;;;;4974663;28;20662;-72
2024/02/04 00:31:50;;;;;;;5.53;0.93;;;8.00;99.90;;;;;;4974858;28;20198;-72
2024/02/04 00:34:16;;;;;;;2.20;0.90;;;8.00;99.90;;;;;;4974686;28;20208;-72
2024/02/04 00:36:42;;;;;;;1.00;0.83;;;8.00;99.90;;;;;;4974513;28;20184;-72
2024/02/04 00:39:07;;;;;;;1.03;0.90;;;7.90;99.90;;;;;;4974665;28;20666;-72
2024/02/04 00:41:34;;;;;;;1.10;0.70;;;7.90;99.90;;;;;;4974553;28;20554;-72
2024/02/04 00:43:59;;;;;;;0.77;0.70;;;7.90;99.90;;;;;;4957269;28;20172;-72
2024/02/04 00:46:25;;;;;;;0.70;0.70;;;7.90;99.90;;;;;;4974477;28;20471;-73
2024/02/04 00:48:50;;;;;;;0.80;0.67;;;7.80;99.90;;;;;;4974493;28;20168;-72
2024/02/04 00:51:19;;;;;;;0.60;0.60;;;7.80;99.90;;;;;;4974365;28;20546;-73
2024/02/04 00:53:45;;;;;;;0.80;0.70;;;7.80;99.90;;;;;;4974392;28;20172;-72
2024/02/04 00:56:11;;;;;;;0.90;0.60;;;7.80;99.90;;;;;;4974421;28;20423;-72
2024/02/04 00:58:37;;;;;;;0.97;0.50;;;7.70;99.90;;;;;;4974032;28;20424;-72
2024/02/04 01:01:03;;;;;;;1.67;0.60;;;7.70;99.90;;;;;;4974280;28;20282;-72
2024/02/04 01:03:29;;;;;;;0.60;0.60;;;7.70;99.90;;;;;;4974152;28;20513;-73
2024/02/04 01:05:55;;;;;;;0.77;0.77;;;7.70;99.90;;;;;;4974226;28;20248;-72
2024/02/04 01:08:21;;;;;;;0.60;0.60;;;7.70;99.90;;;;;;4956409;28;20176;-73
2024/02/04 01:10:46;;;;;;;0.73;0.70;;;7.70;99.90;;;;;;4974022;28;20494;-72
2024/02/04 01:13:13;;;;;;;0.70;0.70;;;7.60;99.90;;;;;;4974056;28;20176;-72
2024/02/04 01:15:39;;;;;;;1.17;1.00;;;7.60;99.90;;;;;;4973952;28;20303;-73
2024/02/04 01:18:04;;;;;;;2.93;0.60;;;7.60;99.90;;;;;;4973626;28;20514;-73
2024/02/04 01:20:30;;;;;;;0.80;0.80;;;7.60;99.90;;;;;;4973858;28;20192;-73
2024/02/04 01:22:55;;;;;;;0.70;0.60;;;7.60;99.90;;;;;;4973998;28;20227;-73
2024/02/04 01:25:21;;;;;;;0.70;0.63;;;7.50;99.90;;;;;;4973174;28;20177;-73
2024/02/04 01:27:46;;;;;;;0.80;0.53;;;7.50;99.90;;;;;;4973527;28;20187;-71
2024/02/04 01:30:12;;;;;;;0.70;0.60;;;7.50;99.90;;;;;;4974194;28;20191;-73
2024/02/04 01:32:37;;;;;;;0.70;0.70;;;7.50;99.90;;;;;;4973750;28;20172;-73
2024/02/04 01:35:03;;;;;;;1.07;0.90;;;7.40;99.90;;;;;;4973595;28;20204;-73
2024/02/04 01:37:29;;;;;;;0.53;0.50;;;7.40;99.90;;;;;;4973458;28;20168;-74
2024/02/04 01:39:54;;;;;;;0.70;0.70;;;7.40;99.90;;;;;;4973488;28;20451;-74
2024/02/04 01:42:20;;;;;;;0.63;0.63;;;7.40;99.90;;;;;;4973507;28;20172;-74
2024/02/04 01:44:46;;;;;;;2.30;0.80;;;7.40;99.90;;;;;;4973688;28;20168;-73
2024/02/04 01:47:12;;;;;;;0.73;0.73;;;7.30;99.90;;;;;;4973363;28;20566;-73
2024/02/04 01:49:38;;;;;;;1.07;0.80;;;7.30;99.90;;;;;;4973543;28;20188;-75
2024/02/04 01:52:05;;;;;;;0.80;0.80;;;7.30;99.90;;;;;;4973551;28;20434;-75
2024/02/04 01:54:32;;;;;;;0.60;0.60;;;7.30;99.90;;;;;;4973651;28;20551;-75
2024/02/04 01:57:02;;;;;;;0.60;0.60;;;7.20;99.90;;;;;;4973218;28;20999;-73
2024/02/04 01:59:30;;;;;;;0.63;0.60;;;7.20;99.90;;;;;;4973566;28;20421;-73
2024/02/04 02:01:59;;;;;;;1.83;0.60;;;7.30;99.90;;;;;;4973381;28;20438;-73
2024/02/04 02:04:25;;;;;;;0.70;0.70;;;7.30;99.90;;;;;;4973269;28;20490;-73
2024/02/04 02:06:52;;;;;;;0.77;0.77;;;7.30;99.90;;;;;;4972711;28;20455;-73
2024/02/04 02:09:18;;;;;;;0.60;0.60;;;7.40;99.90;;;;;;4973277;28;20168;-73
2024/02/04 02:11:54;;;;;;;0.63;0.60;;;7.40;99.90;;;;;;4973301;28;20455;-73
2024/02/04 02:14:26;;;;;;;1.50;0.70;;;7.40;99.90;;;;;;4973245;28;20257;-76
2024/02/04 02:16:57;;;;;;;0.90;0.90;;;7.40;99.90;;;;;;4973116;28;20503;-75
2024/02/04 02:19:48;;;;;;;1.00;0.77;;;7.40;99.90;;;;;;4973132;28;20410;-75
2024/02/04 02:22:29;;;;;;;1.70;0.80;;;7.50;99.90;;;;;;4957485;28;20440;-73
2024/02/04 02:24:59;;;;;;;0.80;0.80;;;7.50;99.90;;;;;;4973131;28;20435;-76
2024/02/04 02:27:25;;;;;;;0.80;0.80;;;7.50;99.90;;;;;;4972845;28;20415;-73
2024/02/04 02:29:51;;;;;;;2.00;0.70;;;7.40;99.90;;;;;;4972730;28;20470;-73
2024/02/04 02:32:17;;;;;;;0.80;0.80;;;7.40;99.90;;;;;;4973104;28;20416;-75
2024/02/04 02:34:42;;;;;;;1.13;0.70;;;7.40;99.90;;;;;;4973107;28;20204;-74
2024/02/04 02:37:14;;;;;;;0.70;0.70;;;7.30;99.90;;;;;;4976400;28;20829;-73
2024/02/04 02:39:52;;;;;;;0.70;0.70;;;7.30;99.90;;;;;;4976866;28;20196;-74
2024/02/04 02:42:21;;;;;;;0.73;0.73;;;7.30;99.90;;;;;;4976810;28;20415;-75
2024/02/04 02:44:46;;;;;;;0.70;0.70;;;7.30;99.90;;;;;;4976780;28;20498;-75
2024/02/04 02:47:14;;;;;;;0.80;0.80;;;7.30;99.90;;;;;;4976398;28;20510;-75
2024/02/04 02:49:39;;;;;;;0.60;0.60;;;7.40;99.90;;;;;;4976555;28;20447;-75
2024/02/04 02:52:05;;;;;;;0.70;0.70;;;7.40;99.90;;;;;;4976761;28;20411;-75
2024/02/04 02:54:31;;;;;;;0.70;0.70;;;7.40;99.90;;;;;;4976659;28;20203;-75
2024/02/04 02:56:56;;;;;;;1.47;0.90;;;7.40;99.90;;;;;;4976400;28;20415;-75
2024/02/04 02:59:22;;;;;;;1.07;0.60;;;7.40;99.90;;;;;;4976488;28;20199;-75
2024/02/04 03:01:47;;;;;;;0.80;0.80;;;7.40;99.90;;;;;;4976467;28;20190;-74
2024/02/04 03:04:13;;;;;;;0.70;0.60;;;7.40;99.90;;;;;;4959141;28;20673;-75
2024/02/04 03:06:38;;;;;;;0.80;0.70;;;7.40;99.90;;;;;;4976139;28;20177;-76
2024/02/04 03:09:04;;;;;;;0.60;0.60;;;7.50;99.90;;;;;;4975985;28;20180;-75
2024/02/04 03:11:30;;;;;;;0.93;0.80;;;7.50;99.90;;;;;;4976227;28;20192;-75
2024/02/04 03:13:55;;;;;;;0.85;0.80;;;7.50;99.90;;;;;;4976069;28;20307;-76
2024/02/04 03:16:20;;;;;;;0.77;0.77;;;7.50;99.90;;;;;;4976239;28;20203;-74
2024/02/04 03:18:46;;;;;;;0.80;0.60;;;7.50;99.90;;;;;;4976158;28;20252;-74
2024/02/04 03:21:13;;;;;;;1.13;1.03;;;7.40;99.90;;;;;;4976046;28;20721;-75
2024/02/04 03:23:39;;;;;;;0.80;0.80;;;7.50;99.90;;;;;;4976042;28;20204;-74
2024/02/04 03:26:04;;;;;;;0.93;0.87;;;7.40;99.90;;;;;;4976005;28;20518;-75
2024/02/04 03:28:30;;;;;;;0.70;0.70;;;7.50;99.90;;;;;;4975830;28;20188;-74
2024/02/04 03:30:55;;;;;;;0.80;0.70;;;7.50;99.90;;;;;;4975759;28;20223;-74
2024/02/04 03:33:21;;;;;;;0.70;0.70;;;7.50;99.90;;;;;;4975792;28;20651;-74
2024/02/04 03:35:46;;;;;;;1.10;0.80;;;7.50;99.90;;;;;;4975862;28;20231;-74
2024/02/04 03:38:12;;;;;;;0.77;0.63;;;7.50;99.90;;;;;;4975473;28;20518;-74
2024/02/04 03:40:37;;;;;;;0.63;0.60;;;7.50;99.90;;;;;;4975742;28;20184;-74
2024/02/04 03:43:03;;;;;;;1.23;0.80;;;7.60;99.90;;;;;;4975695;28;20578;-74
2024/02/04 03:45:28;;;;;;;0.80;0.70;;;7.50;99.90;;;;;;4975726;28;20264;-74
2024/02/04 03:47:54;;;;;;;0.73;0.70;;;7.50;99.90;;;;;;4974600;28;20199;-75
2024/02/04 03:50:19;;;;;;;0.70;0.70;;;7.50;99.90;;;;;;4975484;28;20257;-74
2024/02/04 03:52:45;;;;;;;0.60;0.60;;;7.60;99.90;;;;;;4975754;28;20168;-74
2024/02/04 03:55:11;;;;;;;0.67;0.67;;;7.60;99.90;;;;;;4975590;28;20291;-74
2024/02/04 03:57:36;;;;;;;0.70;0.70;;;7.60;99.90;;;;;;4975260;28;20172;-74
2024/02/04 04:00:02;;;;;;;0.60;0.60;;;7.60;99.90;;;;;;4975482;28;20724;-74
2024/02/04 04:02:28;;;;;;;1.00;0.73;;;7.60;99.90;;;;;;4975364;28;20172;-74
2024/02/04 04:04:53;;;;;;;0.70;0.60;;;7.60;99.90;;;;;;4975238;28;20940;-74
2024/02/04 04:07:19;;;;;;;0.83;0.53;;;7.70;99.90;;;;;;4974927;28;20262;-74
2024/02/04 04:09:44;;;;;;;0.50;0.50;;;7.60;99.90;;;;;;4975294;28;20334;-74
2024/02/04 04:12:10;;;;;;;0.93;0.70;;;7.60;99.90;;;;;;4975268;28;20724;-74
2024/02/04 04:14:35;;;;;;;2.93;0.63;;;7.70;99.90;;;;;;4975191;28;20223;-74
2024/02/04 04:17:01;;;;;;;0.90;0.60;;;7.70;99.90;;;;;;4974724;28;20172;-74
2024/02/04 04:19:26;;;;;;;0.53;0.50;;;7.70;99.90;;;;;;4975089;28;20177;-73
2024/02/04 04:21:52;;;;;;;0.53;0.50;;;7.70;99.90;;;;;;4974965;28;20227;-73
2024/02/04 04:24:21;;;;;;;0.50;0.50;;;7.70;99.90;;;;;;4974995;28;20231;-73
2024/02/04 04:26:47;;;;;;;1.03;0.77;;;7.70;99.90;;;;;;4974723;28;20179;-73
2024/02/04 04:29:12;;;;;;;0.83;0.70;;;7.70;99.90;;;;;;4974887;28;20424;-73
2024/02/04 04:31:38;;;;;;;0.80;0.80;;;7.70;99.90;;;;;;4974705;28;20239;-73
2024/02/04 04:34:03;;;;;;;0.60;0.60;;;7.70;99.90;;;;;;4974605;28;20181;-73
2024/02/04 04:36:29;;;;;;;0.60;0.57;;;7.70;99.90;;;;;;4974369;28;20176;-73
2024/02/04 04:38:54;;;;;;;0.73;0.73;;;7.70;99.90;;;;;;4974626;28;20177;-73
2024/02/04 04:41:20;;;;;;;0.80;0.80;;;7.70;99.90;;;;;;4974608;28;20199;-73
2024/02/04 04:43:46;;;;;;;0.70;0.60;;;7.70;99.90;;;;;;4974708;28;20168;-73
2024/02/04 04:46:11;;;;;;;0.50;0.50;;;7.70;99.90;;;;;;4974673;28;20172;-73
2024/02/04 04:48:37;;;;;;;0.70;0.60;;;7.70;99.90;;;;;;4974358;28;20187;-73
2024/02/04 04:51:02;;;;;;;0.63;0.60;;;7.70;99.90;;;;;;4974379;28;20200;-73
2024/02/04 04:53:28;;;;;;;0.67;0.67;;;7.70;99.90;;;;;;4974464;28;20211;-73
2024/02/04 04:55:53;;;;;;;0.67;0.67;;;7.60;99.90;;;;;;4974281;28;20305;-73
2024/02/04 04:58:19;;;;;;;0.80;0.80;;;7.60;99.90;;;;;;4973926;28;20503;-74
2024/02/04 05:00:44;;;;;;;0.83;0.80;;;7.60;99.90;;;;;;4974218;28;20180;-73
2024/02/04 05:03:10;;;;;;;1.00;0.90;;;7.50;99.90;;;;;;4974199;28;20172;-73
2024/02/04 05:05:35;;;;;;;0.70;0.67;;;7.40;99.90;;;;;;4974256;28;20176;-73
2024/02/04 05:08:01;;;;;;;1.43;0.90;;;7.40;99.90;;;;;;4973871;28;20176;-73
2024/02/04 05:10:26;;;;;;;0.50;0.50;;;7.40;99.90;;;;;;4974174;28;20619;-73
2024/02/04 05:12:52;;;;;;;0.50;0.50;;;7.30;99.90;;;;;;4974396;28;20189;-73
2024/02/04 05:15:17;;;;;;;0.60;0.50;;;7.30;99.90;;;;;;4974148;28;20192;-73
2024/02/04 05:17:43;;;;;;;0.80;0.80;;;7.30;99.90;;;;;;4973636;28;20184;-74
2024/02/04 05:20:09;;;;;;;0.53;0.53;;;7.30;99.90;;;;;;4973755;28;20192;-73
2024/02/04 05:22:35;;;;;;;0.77;0.77;;;7.30;99.90;;;;;;4974119;28;20177;-73
2024/02/04 05:25:00;;;;;;;0.80;0.60;;;7.20;99.90;;;;;;4974001;28;20994;-73
2024/02/04 05:27:26;;;;;;;1.07;0.97;;;7.30;99.90;;;;;;4973622;28;20177;-73
2024/02/04 05:29:52;;;;;;;1.33;0.60;;;7.30;99.90;;;;;;4973693;28;20467;-73
2024/02/04 05:32:17;;;;;;;0.70;0.60;;;7.30;99.90;;;;;;4973885;28;20188;-74
2024/02/04 05:34:43;;;;;;;0.80;0.70;;;7.30;99.90;;;;;;4973569;28;20218;-73
2024/02/04 05:37:08;;;;;;;2.00;1.80;;;7.30;99.90;;;;;;4973425;28;20184;-73
2024/02/04 05:39:34;;;;;;;0.60;0.57;;;7.40;99.90;;;;;;4973790;28;20219;-74
2024/02/04 05:41:59;;;;;;;0.90;0.50;;;7.30;99.90;;;;;;4973863;28;20255;-73
2024/02/04 05:44:25;;;;;;;0.50;0.50;;;7.40;99.90;;;;;;4973699;28;20219;-73
2024/02/04 05:46:50;;;;;;;0.60;0.50;;;7.40;99.90;;;;;;4973333;28;20176;-73
2024/02/04 05:49:16;;;;;;;0.50;0.50;;;7.40;99.90;;;;;;4973771;28;20196;-73
2024/02/04 05:51:41;;;;;;;0.60;0.60;;;7.40;99.90;;;;;;4973492;28;20638;-73
2024/02/04 05:54:07;;;;;;;0.60;0.53;;;7.40;99.90;;;;;;4973704;28;20223;-73
2024/02/04 05:56:33;;;;;;;0.50;0.50;;;7.40;99.90;;;;;;4973403;28;20243;-73
2024/02/04 05:58:59;;;;;;;0.67;0.67;;;7.40;99.90;;;;;;4973632;28;20415;-74
2024/02/04 06:01:24;;;;;;;0.50;0.40;;;7.40;99.90;;;;;;4973335;28;20440;-75
2024/02/04 06:03:50;;;;;;;0.70;0.60;;;7.50;99.90;;;;;;4973496;28;20252;-75
2024/02/04 06:06:18;;;;;;;0.50;0.50;;;7.50;99.90;;;;;;4973347;28;20177;-75
2024/02/04 06:08:43;;;;;;;0.60;0.60;;;7.40;99.90;;;;;;4973213;28;20666;-75
2024/02/04 06:11:12;;;;;;;0.50;0.50;;;7.40;99.90;;;;;;4972681;28;20443;-76
2024/02/04 06:13:40;;;;;;;0.57;0.50;;;7.40;99.90;;;;;;4973182;28;20179;-75
2024/02/04 06:16:06;;;;;;;1.17;0.60;;;7.40;99.90;;;;;;4973037;28;20448;-75
2024/02/04 06:18:32;;;;;;;0.50;0.50;;;7.40;99.90;;;;;;4972811;28;20420;-75
2024/02/04 06:20:57;;;;;;;0.70;0.60;;;7.40;99.90;;;;;;4973125;28;20212;-75
2024/02/04 06:23:23;;;;;;;1.10;0.60;;;7.30;99.90;;;;;;4973300;28;20172;-74
2024/02/04 06:25:48;;;;;;;0.73;0.50;;;7.30;99.90;;;;;;4973259;28;20673;-74
2024/02/04 06:28:14;;;;;;;0.57;0.53;;;7.30;99.90;;;;;;4972828;28;20173;-74
2024/02/04 06:30:39;;;;;;;0.70;0.70;;;7.30;99.90;;;;;;4972853;28;20216;-74
2024/02/04 06:33:05;;;;;;;0.67;0.57;;;7.30;99.90;;;;;;4972979;28;20219;-74
2024/02/04 06:35:32;;;;;;;0.50;0.50;;;7.40;99.90;;;;;;4973013;28;20204;-75
2024/02/04 06:37:57;;;;;;;2.20;1.57;;;7.30;99.90;;;;;;4972807;28;20182;-74
2024/02/04 06:40:23;;;;;;;0.77;0.77;;;7.40;99.90;;;;;;4973070;28;20525;-74
2024/02/04 06:42:48;;;;;;;0.80;0.80;;;7.40;99.90;;;;;;4972989;28;20169;-74
2024/02/04 06:45:14;;;;;;;1.27;0.90;;;7.40;99.90;;;;;;4972873;28;20172;-75
2024/02/04 06:47:42;;;;;;;0.60;0.60;;;7.40;99.90;;;;;;4972587;28;20553;-74
2024/02/04 06:50:13;;;;;;;0.83;0.70;;;7.40;99.90;;;;;;4972969;28;20204;-74
2024/02/04 06:52:39;;;;;;;0.80;0.80;;;7.40;99.90;;;;;;4972921;28;20485;-75
2024/02/04 06:55:05;;;;;;;0.63;0.60;;;7.40;99.90;;;;;;4972994;28;20466;-74
2024/02/04 06:57:31;;;;;;;0.60;0.60;;;7.40;99.90;;;;;;4972520;28;20416;-74
2024/02/04 06:59:56;;;;;;;0.63;0.63;;;7.40;99.90;;;;;;4972921;28;20199;-75
2024/02/04 07:02:22;;;;;;;3.43;2.30;;;7.40;99.90;;;;;;4972974;28;20251;-74
2024/02/04 07:04:47;;;;;;;0.70;0.70;;;7.40;99.90;;;;;;4972824;28;20173;-74
2024/02/04 07:07:12;;;;;;;0.60;0.60;;;7.40;99.90;;;;;;4972517;28;20172;-74
2024/02/04 07:09:38;;;;;;;0.70;0.70;;;7.40;99.90;;;;;;4972663;28;20283;-74
2024/02/04 07:12:04;;;;;;;0.60;0.60;;;7.40;99.90;;;;;;4972661;28;20550;-74
2024/02/04 07:14:30;;;;;;;1.03;0.80;;;7.40;99.90;;;;;;4972565;28;20196;-75
2024/02/04 07:16:55;;;;;;;0.67;0.60;;;7.50;99.90;;;;;;4972314;28;20849;-74
2024/02/04 07:19:21;;;;;;;1.40;1.30;;;7.40;99.90;;;;;;4972526;28;20208;-74
2024/02/04 07:21:46;;;;;;;1.90;0.87;;;7.40;99.90;;;;;;4972647;28;20173;-74
2024/02/04 07:24:12;;;;;;;0.83;0.80;;;7.40;99.90;;;;;;4975946;28;20169;-74
2024/02/04 07:26:37;;;;;;;0.93;0.83;;;7.30;99.90;;;;;;4975860;28;20227;-74
2024/02/04 07:29:03;;;;;;;1.33;0.90;;;7.30;99.90;;;;;;4976015;28;20176;-74
2024/02/04 07:31:28;;;;;;;0.63;0.63;;;7.30;99.90;;;;;;4976210;28;20223;-72
2024/02/04 07:33:54;;;;;;;1.27;1.10;;;7.30;99.90;;;;;;4976075;28;20168;-72
2024/02/04 07:36:19;;;;;;;0.70;0.70;;;7.40;99.90;;;;;;4975721;28;20684;-72
2024/02/04 07:38:45;;;;;;;0.70;0.70;;;7.40;99.90;;;;;;4975798;28;20173;-73
2024/02/04 07:41:13;;;;;;;0.93;0.93;;;7.40;99.90;;;;;;4975893;28;20246;-73
2024/02/04 07:43:39;;;;;;;1.33;1.00;;;7.50;99.90;;;;;;4975701;28;20165;-72
2024/02/04 07:46:05;;;;;;;1.10;0.90;;;7.60;99.90;;;;;;4975577;28;20424;-73
2024/02/04 07:48:30;;;;;;;1.07;0.80;;;7.60;99.90;;;;;;4975493;28;20173;-72
2024/02/04 07:50:56;;;;;;;0.90;0.67;;;7.70;99.90;;;;;;4975652;28;20505;-72
2024/02/04 07:53:23;;;;;;;2.10;0.60;;;7.70;99.90;;;;;;4975558;28;20200;-73
2024/02/04 07:55:49;;;;;;;0.83;0.80;;;7.80;99.90;;;;;;4975568;28;20298;-72
2024/02/04 07:58:15;;;;;;;0.60;0.60;;;7.80;99.90;;;;;;4975200;28;20427;-72
2024/02/04 08:00:40;;;;;;;1.67;1.40;;;7.80;99.90;;;;;;4975572;28;20440;-72
2024/02/04 08:03:06;;;;;;;1.33;0.70;;;7.80;99.90;;;;;;4975399;28;20231;-72
2024/02/04 08:05:31;;;;;;;1.30;1.00;;;7.80;99.90;;;;;;4975418;28;20184;-72
2024/02/04 08:07:57;;;;;;;0.80;0.80;;;7.80;99.90;;;;;;4974863;28;20168;-72
2024/02/04 08:10:22;;;;;;;1.10;1.00;;;7.80;99.90;;;;;;4975196;28;20188;-72
2024/02/04 08:12:50;;;;;;;1.40;1.30;;;7.90;99.90;;;;;;4975129;28;20650;-72
2024/02/04 08:15:17;;;;;;;1.43;0.80;;;7.90;99.90;;;;;;4975082;28;20339;-73
2024/02/04 08:17:42;;;;;;;1.10;1.00;;;7.90;99.90;;;;;;4974820;28;20419;-72
2024/02/04 08:20:08;;;;;;;1.00;0.83;;;8.00;99.90;;;;;;4974965;28;20949;-73
2024/02/04 08:22:34;;;;;;;0.83;0.83;;;8.00;99.90;;;;;;4974993;28;20176;-73
2024/02/04 08:25:01;;;;;;;0.70;0.70;;;8.00;99.90;;;;;;4974974;28;20782;-72
2024/02/04 08:27:27;;;;;;;1.10;1.00;;;8.00;99.90;;;;;;4974693;28;20196;-73
2024/02/04 08:29:52;;;;;;;0.70;0.70;;;8.00;99.90;;;;;;4974716;28;20490;-73
2024/02/04 08:32:17;;;;;;;0.73;0.70;;;8.10;99.90;;;;;;4974907;28;20654;-72
2024/02/04 08:34:43;;;;;;;0.70;0.70;;;8.20;99.90;;;;;;4974279;28;20212;-73
2024/02/04 08:37:09;;;;;;;0.60;0.60;;;8.20;99.90;;;;;;4974520;28;20179;-73
2024/02/04 08:39:34;;;;;;;1.27;0.80;;;8.30;99.90;;;;;;4974665;28;20200;-73
2024/02/04 08:42:00;;;;;;;0.80;0.80;;;8.40;99.90;;;;;;4974549;28;20200;-73
2024/02/04 08:44:25;;;;;;;0.77;0.77;;;8.50;99.90;;;;;;4974605;28;20176;-73
2024/02/04 08:46:51;;;;;;;1.30;0.90;;;8.60;99.90;;;;;;4974320;28;20263;-73
2024/02/04 08:49:16;;;;;;;0.90;0.90;;;8.70;99.90;;;;;;4974317;28;20180;-73
2024/02/04 08:51:42;;;;;;;1.20;1.10;;;8.70;99.90;;;;;;4974630;28;20725;-73
2024/02/04 08:54:08;;;;;;;1.10;1.00;;;8.80;99.90;;;;;;4974543;28;20176;-73
2024/02/04 08:56:33;;;;;;;1.50;0.90;;;8.80;99.90;;;;;;4974177;28;20168;-72
2024/02/04 08:59:01;;;;;;;0.90;0.90;;;8.80;99.90;;;;;;4974338;28;20478;-73
2024/02/04 09:01:27;;;;;;;0.90;0.90;;;8.90;99.90;;;;;;4974195;28;20215;-73
2024/02/04 09:03:53;;;;;;;0.80;0.80;;;9.00;99.90;;;;;;4974265;28;20793;-73
2024/02/04 09:06:18;;;;;;;0.70;0.70;;;9.00;99.90;;;;;;4974037;28;20428;-73
2024/02/04 09:08:44;;;;;;;1.87;1.63;;;9.10;99.90;;;;;;4973876;28;20188;-73
2024/02/04 09:11:09;;;;;;;3.30;2.60;;;9.20;99.90;;;;;;4974031;28;20196;-73
2024/02/04 09:13:35;;;;;;;4.30;0.80;;;9.20;99.90;;;;;;4974179;28;20732;-73
2024/02/04 09:16:00;;;;;;;0.90;0.90;;;9.20;99.90;;;;;;4974019;28;20704;-73
2024/02/04 09:18:26;;;;;;;0.80;0.80;;;9.30;99.90;;;;;;4973871;28;20176;-73
2024/02/04 09:20:51;;;;;;;1.13;0.80;;;9.50;93.60;;;;;;4973856;28;20251;-72
2024/02/04 09:23:17;;;;;;;1.10;0.70;;;9.50;80.10;;;;;;4974050;28;20172;-73
2024/02/04 09:25:42;;;;;;;0.60;0.60;;;9.60;86.20;;;;;;4973949;28;20291;-73
2024/02/04 09:28:08;;;;;;;0.70;0.60;;;9.60;72.20;;;;;;4973688;28;20638;-72
2024/02/04 09:30:33;;;;;;;0.70;0.70;;;9.70;67.30;;;;;;4973745;28;20212;-72
2024/02/04 09:32:59;;;;;;;0.60;0.60;;;9.80;55.90;;;;;;4973805;28;20180;-73
2024/02/04 09:35:24;;;;;;;0.70;0.60;;;9.90;52.70;;;;;;4973782;28;20236;-73
2024/02/04 09:37:50;;;;;;;0.63;0.63;;;10.20;44.10;;;;;;4973704;28;20179;-73
2024/02/04 09:40:15;;;;;;;1.57;0.90;;;11.00;7.70;;;;;;4973573;28;20223;-73
2024/02/04 09:42:41;;;;;;;1.23;1.13;;;11.90;99.90;;;;;;4973910;28;20646;-73
2024/02/04 09:45:07;;;;;;;0.80;0.80;;;12.10;99.90;;;;;;4972980;28;20164;-73
2024/02/04 09:47:35;;;;;;;0.60;0.60;;;12.10;99.90;;;;;;4973344;28;20227;-72
2024/02/04 09:50:00;;;;;;;0.70;0.63;;;11.80;99.90;;;;;;4973451;28;20965;-73
2024/02/04 09:52:32;;;;;;;0.90;0.90;;;11.80;99.90;;;;;;4973500;28;20502;-73
2024/02/04 09:55:03;;;;;;;1.17;1.10;;;12.00;99.90;;;;;;4973482;28;20211;-73
2024/02/04 09:57:34;;;;;;;3.30;3.00;;;12.20;99.90;;;;;;4973237;28;20941;-73
2024/02/04 09:59:59;;;;;;;0.97;0.63;;;12.40;99.90;;;;;;4956080;28;20440;-73
2024/02/04 10:02:26;;;;;;;0.90;0.80;;;12.60;99.90;;;;;;4956055;28;20446;-73
2024/02/04 10:04:51;;;;;;;0.60;0.60;;;12.50;99.90;;;;;;4956001;28;20177;-73
2024/02/04 10:07:18;;;;;;;0.90;0.83;;;12.20;99.90;;;;;;4972824;28;20514;-73
2024/02/04 10:09:47;;;;;;;1.10;1.00;;;11.80;99.90;;;;;;4973154;28;20207;-73
2024/02/04 10:12:12;;;;;;;0.93;0.93;;;11.50;99.90;;;;;;4973341;28;20761;-73
2024/02/04 10:14:38;;;;;;;0.83;0.83;;;11.60;99.90;;;;;;4973185;28;20521;-73
2024/02/04 10:17:04;;;;;;;2.30;0.67;;;11.80;99.90;;;;;;4972932;28;20184;-73
2024/02/04 10:19:30;;;;;;;3.03;0.83;;;11.90;99.90;;;;;;4973256;28;20200;-72
2024/02/04 10:22:03;;;;;;;0.60;0.60;;;11.90;99.90;;;;;;4973404;28;20482;-73
2024/02/04 10:24:29;;;;;;;1.20;1.00;;;12.20;99.90;;;;;;4973136;28;20172;-73
2024/02/04 10:26:56;;;;;;;1.10;1.10;;;12.80;99.90;;;;;;4972801;28;20428;-73
2024/02/04 10:29:23;;;;;;;0.60;0.50;;;12.80;99.90;;;;;;4972878;28;20430;-73
2024/02/04 10:31:48;;;;;;;0.80;0.80;;;12.80;99.90;;;;;;4973032;28;20419;-73
2024/02/04 10:34:14;;;;;;;0.60;0.60;;;12.90;99.90;;;;;;4972987;28;20435;-72
2024/02/04 10:36:40;;;;;;;2.20;1.10;;;13.40;99.90;;;;;;4972636;28;20526;-72
2024/02/04 10:39:06;;;;;;;1.20;0.90;;;13.30;99.90;;;;;;4972982;28;20226;-72
2024/02/04 10:41:34;;;;;;;0.90;0.90;;;13.20;99.90;;;;;;4972926;28;20609;-72
2024/02/04 10:44:02;;;;;;;0.77;0.73;;;13.30;99.90;;;;;;4973004;28;20478;-72
2024/02/04 10:46:31;;;;;;;0.97;0.80;;;12.80;99.90;;;;;;4972600;28;20562;-72
2024/02/04 10:48:59;;;;;;;1.67;1.13;;;12.50;99.90;;;;;;4972872;28;20936;-72
2024/02/04 10:51:26;;;;;;;1.33;1.03;;;12.80;99.90;;;;;;4972932;28;20459;-72
2024/02/04 10:53:55;;;;;;;2.00;1.43;;;12.70;99.90;;;;;;4972776;28;20427;-72
2024/02/04 10:56:36;;;;;;;0.90;0.90;;;12.90;99.90;;;;;;4973419;28;21007;-72
2024/02/04 10:59:03;;;;;;;0.70;0.70;;;13.10;99.90;;;;;;4976480;28;20416;-72
2024/02/04 11:01:29;;;;;;;0.90;0.80;;;13.30;99.90;;;;;;4976583;28;20848;-72
2024/02/04 11:03:55;;;;;;;1.00;0.80;;;13.60;99.90;;;;;;4976469;28;20416;-72
2024/02/04 11:06:23;;;;;;;0.60;0.60;;;13.50;99.90;;;;;;4976307;28;20931;-72
2024/02/04 11:08:49;;;;;;;0.70;0.70;;;13.40;99.90;;;;;;4976339;28;20423;-72
2024/02/04 11:11:15;;;;;;;0.83;0.73;;;13.80;99.90;;;;;;4976359;28;21047;-72
2024/02/04 11:13:45;;;;;;;1.30;1.20;;;14.10;99.90;;;;;;4976173;28;20514;-72
2024/02/04 11:16:31;;;;;;;0.90;0.90;;;15.60;99.90;;;;;;4976363;28;20204;-72
2024/02/04 11:19:12;;;;;;;0.83;0.83;;;18.20;99.90;;;;;;4976136;28;20422;-70
2024/02/04 11:21:56;;;;;;;0.87;0.87;;;19.70;98.80;;;;;;4976138;28;20438;-70
2024/02/04 11:24:38;;;;;;;0.80;0.70;;;20.20;95.00;;;;;;4976118;28;20466;-73
2024/02/04 11:27:04;;;;;;;0.93;0.93;;;21.40;91.30;;;;;;4975743;28;20451;-73
2024/02/04 11:29:30;;;;;;;0.70;0.70;;;21.30;88.10;;;;;;4975919;28;20541;-73
2024/02/04 11:31:56;;;;;;;1.30;1.00;;;21.30;88.50;;;;;;4976004;28;20177;-73
2024/02/04 11:34:23;;;;;;;1.43;0.90;;;21.80;84.10;;;;;;4975748;28;20191;-70
2024/02/04 11:36:49;;;;;;;0.70;0.63;;;21.60;83.00;;;;;;4975558;28;20415;-70
2024/02/04 11:39:21;;;;;;;0.73;0.60;;;20.80;82.70;;;;;;4975750;28;20426;-73
2024/02/04 11:41:48;;;;;;;0.70;0.70;;;20.80;83.90;;;;;;4975910;28;20593;-71
2024/02/04 11:44:22;;;;;;;1.97;0.70;;;21.10;83.20;;;;;;4975745;28;20832;-71
2024/02/04 11:46:48;;;;;;;0.60;0.60;;;21.40;80.00;;;;;;4975561;28;20420;-72
2024/02/04 11:49:18;;;;;;;1.77;1.00;;;21.80;78.60;;;;;;4975481;28;20438;-72
2024/02/04 11:51:52;;;;;;;0.50;0.50;;;22.60;75.40;;;;;;4975566;28;20432;-72
2024/02/04 11:54:20;;;;;;;0.80;0.70;;;22.90;70.90;;;;;;4975442;28;20423;-71
2024/02/04 11:56:52;;;;;;;0.80;0.73;;;21.80;73.10;;;;;;4975206;28;20925;-72
2024/02/04 11:59:25;;;;;;;0.60;0.60;;;21.50;75.70;;;;;;4975408;28;20961;-71
2024/02/04 12:01:55;;;;;;;0.70;0.70;;;21.00;75.40;;;;;;4975561;28;20451;-71
2024/02/04 12:04:21;;;;;;;1.00;1.00;;;19.70;79.70;;;;;;4975453;28;20415;-71
2024/02/04 12:06:47;;;;;;;0.70;0.70;;;19.00;83.60;;;;;;4975002;28;20841;-71
2024/02/04 12:09:18;;;;;;;0.90;0.90;;;18.20;87.20;;;;;;4974306;28;21017;-71
2024/02/04 12:11:44;;;;;;;0.70;0.70;;;17.00;91.90;;;;;;4975254;28;20424;-71
2024/02/04 12:14:10;;;;;;;1.00;0.67;;;16.10;99.90;;;;;;4975341;28;20429;-71
2024/02/04 12:16:36;;;;;;;0.87;0.80;;;16.20;60.30;;;;;;4974957;28;20467;-71
2024/02/04 12:19:05;;;;;;;1.77;1.67;;;16.10;1.00;;;;;;4975141;28;20416;-71
2024/02/04 12:21:32;;;;;;;1.90;1.80;;;16.60;99.90;;;;;;4974973;28;20246;-71
2024/02/04 12:23:59;;;;;;;0.90;0.90;;;17.60;99.90;;;;;;4975172;28;20431;-71
2024/02/04 12:26:25;;;;;;;0.80;0.80;;;17.60;99.90;;;;;;4974678;28;20794;-71
2024/02/04 12:28:51;;;;;;;0.83;0.70;;;17.00;99.90;;;;;;4974861;28;21169;-71
2024/02/04 12:31:20;;;;;;;0.70;0.70;;;16.00;1.00;;;;;;4974758;28;20475;-71
2024/02/04 12:34:00;;;;;;;0.70;0.70;;;15.00;1.00;;;;;;4974758;28;20191;-71
2024/02/04 12:36:27;;;;;;;1.00;0.90;;;14.80;99.90;;;;;;4974453;28;20991;-71
2024/02/04 12:38:54;;;;;;;0.80;0.80;;;15.20;99.90;;;;;;4974673;28;20428;-71
2024/02/04 12:41:24;;;;;;;0.93;0.93;;;16.00;99.90;;;;;;4974573;28;20946;-71
2024/02/04 12:43:56;;;;;;;0.67;0.67;;;16.30;99.90;;;;;;4974699;28;20462;-71
2024/02/04 12:46:23;;;;;;;0.80;0.80;;;16.70;99.90;;;;;;4974511;28;20424;-71
2024/02/04 12:48:58;;;;;;;1.50;1.40;;;17.00;99.90;;;;;;4974434;28;20483;-71
2024/02/04 12:51:32;;;;;;;0.90;0.90;;;18.20;1.00;;;;;;4974295;28;20509;-71